createdAt,value
2022-10-06T00:00:36.206Z,55.40
2022-10-06T00:03:06.245Z,54.40
2022-10-06T00:05:36.251Z,54.50
2022-10-06T00:08:09.954Z,55.60
2022-10-06T00:10:41.249Z,55.30
2022-10-06T00:13:11.340Z,56.00
2022-10-06T00:15:41.345Z,54.50
2022-10-06T00:18:11.251Z,55.90
2022-10-06T00:20:44.472Z,55.40
2022-10-06T00:23:13.963Z,55.80
2022-10-06T00:25:44.579Z,54.90
2022-10-06T00:28:15.322Z,55.80
2022-10-06T00:30:47.278Z,56.20
2022-10-06T00:33:18.880Z,56.00
2022-10-06T00:35:49.249Z,56.00
2022-10-06T00:38:19.206Z,56.00
2022-10-06T00:40:50.356Z,55.70
2022-10-06T00:43:52.302Z,55.30
2022-10-06T00:46:40.897Z,55.10
2022-10-06T00:49:30.182Z,53.10
2022-10-06T00:52:04.962Z,55.60
2022-10-06T00:54:35.323Z,54.40
2022-10-06T00:57:05.942Z,53.80
2022-10-06T00:59:36.102Z,53.10
2022-10-06T01:02:16.711Z,51.00
2022-10-06T01:07:27.768Z,55.30
2022-10-06T01:10:00.693Z,52.00
2022-10-06T01:12:30.757Z,50.90
2022-10-06T01:15:00.819Z,52.20
2022-10-06T01:17:35.541Z,53.60
2022-10-06T01:20:08.738Z,53.20
2022-10-06T01:23:11.251Z,54.60
2022-10-06T01:25:41.216Z,56.60
2022-10-06T01:28:11.355Z,56.00
2022-10-06T01:30:43.151Z,55.10
2022-10-06T01:33:13.242Z,56.40
2022-10-06T01:35:43.435Z,56.10
2022-10-06T01:38:13.368Z,56.30
2022-10-06T01:40:43.844Z,59.20
2022-10-06T01:43:13.801Z,57.80
2022-10-06T01:45:45.641Z,58.20
2022-10-06T01:48:15.659Z,59.40
2022-10-06T01:50:45.768Z,57.00
2022-10-06T01:53:16.048Z,56.10
2022-10-06T01:55:46.040Z,54.60
2022-10-06T01:58:20.241Z,54.00
2022-10-06T02:00:52.115Z,54.10
2022-10-06T02:03:22.148Z,53.50
2022-10-06T02:05:52.176Z,51.50
2022-10-06T02:08:23.026Z,52.10
2022-10-06T02:10:58.065Z,53.10
2022-10-06T02:13:31.530Z,53.80
2022-10-06T02:16:01.599Z,52.90
2022-10-06T02:18:31.801Z,52.40
2022-10-06T02:21:02.955Z,52.30
2022-10-06T02:23:33.061Z,52.10
2022-10-06T02:26:04.140Z,52.30
2022-10-06T02:28:34.642Z,52.50
2022-10-06T02:31:08.486Z,53.00
2022-10-06T02:33:41.105Z,52.90
2022-10-06T02:36:13.223Z,52.40
2022-10-06T02:38:43.288Z,51.60
2022-10-06T02:41:13.337Z,54.00
2022-10-06T02:43:43.294Z,53.20
2022-10-06T02:46:14.725Z,53.60
2022-10-06T02:48:53.056Z,54.20
2022-10-06T02:51:23.695Z,53.60
2022-10-06T02:53:53.999Z,54.30
2022-10-06T02:56:25.420Z,53.30
2022-10-06T02:58:55.825Z,52.60
2022-10-06T03:01:30.394Z,53.90
2022-10-06T03:04:04.086Z,53.00
2022-10-06T03:06:34.312Z,53.30
2022-10-06T03:09:16.435Z,53.30
2022-10-06T03:11:46.961Z,51.60
2022-10-06T03:14:28.320Z,52.80
2022-10-06T03:16:58.558Z,54.00
2022-10-06T03:19:31.454Z,53.40
2022-10-06T03:22:02.461Z,53.70
2022-10-06T03:24:45.839Z,54.30
2022-10-06T03:27:16.075Z,53.00
2022-10-06T03:29:47.239Z,51.60
2022-10-06T03:32:18.551Z,53.40
2022-10-06T03:34:50.276Z,53.40
2022-10-06T03:37:21.223Z,53.60
2022-10-06T03:39:52.820Z,52.30
2022-10-06T03:42:23.101Z,53.50
2022-10-06T03:44:55.505Z,52.70
2022-10-06T03:47:30.853Z,53.30
2022-10-06T03:50:01.204Z,52.30
2022-10-06T03:52:32.735Z,53.40
2022-10-06T03:55:03.616Z,52.10
2022-10-06T03:57:36.116Z,50.50
2022-10-06T04:00:07.067Z,52.30
2022-10-06T04:02:42.085Z,52.50
2022-10-06T04:05:13.483Z,51.60
2022-10-06T04:07:44.547Z,51.80
2022-10-06T04:10:14.884Z,51.20
2022-10-06T04:12:44.962Z,51.70
2022-10-06T04:15:17.948Z,51.30
2022-10-06T04:17:50.321Z,51.70
2022-10-06T04:20:20.637Z,52.10
2022-10-06T04:22:51.340Z,53.00
2022-10-06T04:25:22.151Z,51.90
2022-10-06T04:27:52.577Z,51.70
2022-10-06T04:30:23.014Z,50.90
2022-10-06T04:32:53.577Z,52.30
2022-10-06T04:35:24.546Z,51.80
2022-10-06T04:37:55.841Z,52.10
2022-10-06T04:40:26.330Z,51.90
2022-10-06T04:42:57.546Z,52.10
2022-10-06T04:45:29.280Z,51.50
2022-10-06T04:47:59.426Z,52.40
2022-10-06T04:50:29.811Z,53.60
2022-10-06T04:53:15.307Z,52.70
2022-10-06T04:55:46.655Z,53.10
2022-10-06T04:58:17.206Z,53.30
2022-10-06T05:00:50.301Z,52.60
2022-10-06T05:03:21.154Z,49.20
2022-10-06T05:05:51.953Z,52.60
2022-10-06T05:08:22.871Z,51.60
2022-10-06T05:10:53.343Z,52.40
2022-10-06T05:13:23.340Z,52.50
2022-10-06T05:16:00.670Z,52.60
2022-10-06T05:18:34.576Z,52.20
2022-10-06T05:21:09.322Z,51.10
2022-10-06T05:23:41.611Z,52.20
2022-10-06T05:26:19.115Z,52.30
2022-10-06T05:28:49.285Z,52.80
2022-10-06T05:31:24.375Z,52.90
2022-10-06T05:33:55.836Z,52.70
2022-10-06T05:36:29.201Z,52.80
2022-10-06T05:39:00.416Z,52.60
2022-10-06T05:41:35.279Z,52.20
2022-10-06T05:44:08.334Z,51.60
2022-10-06T05:46:40.682Z,50.60
2022-10-06T05:49:14.071Z,49.60
2022-10-06T05:52:10.025Z,48.10
2022-10-06T05:54:39.977Z,46.80
2022-10-06T05:57:11.208Z,46.50
2022-10-06T05:59:41.906Z,47.10
2022-10-06T06:02:12.539Z,47.00
2022-10-06T06:04:46.148Z,46.80
2022-10-06T06:07:16.567Z,46.40
2022-10-06T06:09:48.218Z,46.10
2022-10-06T06:12:18.367Z,46.60
2022-10-06T06:15:30.162Z,45.40
2022-10-06T06:18:07.235Z,45.90
2022-10-06T06:20:38.336Z,46.20
2022-10-06T06:23:08.398Z,46.30
2022-10-06T06:25:38.817Z,46.90
2022-10-06T06:28:09.980Z,46.60
2022-10-06T06:30:39.920Z,46.60
2022-10-06T06:33:10.239Z,46.20
2022-10-06T06:35:40.846Z,46.60
2022-10-06T06:38:12.978Z,46.50
2022-10-06T06:40:43.148Z,46.40
2022-10-06T06:43:15.059Z,46.50
2022-10-06T06:46:16.936Z,46.40
2022-10-06T06:49:01.689Z,46.50
2022-10-06T06:51:34.412Z,46.00
2022-10-06T06:54:05.588Z,45.90
2022-10-06T06:56:38.406Z,45.40
2022-10-06T06:59:14.708Z,45.70
2022-10-06T07:01:48.527Z,46.20
2022-10-06T07:04:27.832Z,45.50
2022-10-06T07:07:31.837Z,46.20
2022-10-06T07:10:03.430Z,46.10
2022-10-06T07:12:35.956Z,46.60
2022-10-06T07:15:25.456Z,46.80
2022-10-06T07:18:18.894Z,46.70
2022-10-06T07:21:08.160Z,46.70
2022-10-06T07:23:59.420Z,46.80
2022-10-06T07:26:33.418Z,46.80
2022-10-06T07:29:04.148Z,47.20
2022-10-06T07:31:39.435Z,47.20
2022-10-06T07:34:09.744Z,47.20
2022-10-06T07:36:39.879Z,47.60
2022-10-06T07:39:12.468Z,48.10
2022-10-06T07:41:43.829Z,47.20
2022-10-06T07:44:15.248Z,47.60
2022-10-06T07:46:47.736Z,48.70
2022-10-06T07:49:23.326Z,47.70
2022-10-06T07:51:55.600Z,49.30
2022-10-06T07:54:27.464Z,47.30
2022-10-06T07:57:17.157Z,49.10
2022-10-06T07:59:47.028Z,49.60
2022-10-06T08:02:17.153Z,49.60
2022-10-06T08:04:47.158Z,49.40
2022-10-06T08:07:17.170Z,49.00
2022-10-06T08:09:47.035Z,49.90
2022-10-06T08:12:35.245Z,49.90
2022-10-06T08:15:09.756Z,49.70
2022-10-06T08:17:40.092Z,50.50
2022-10-06T08:20:13.927Z,50.40
2022-10-06T08:22:43.890Z,50.20
2022-10-06T08:25:14.084Z,50.10
2022-10-06T08:27:47.205Z,48.70
2022-10-06T08:30:21.521Z,50.30
2022-10-06T08:32:58.692Z,50.50
2022-10-06T08:35:30.423Z,50.20
2022-10-06T08:38:00.658Z,51.00
2022-10-06T08:40:37.223Z,51.40
2022-10-06T08:43:09.204Z,50.80
2022-10-06T08:45:42.126Z,50.80
2022-10-06T08:48:18.369Z,51.00
2022-10-06T08:51:14.068Z,50.80
2022-10-06T08:53:50.642Z,50.80
2022-10-06T08:56:53.196Z,50.60
2022-10-06T08:59:23.280Z,49.80
2022-10-06T09:01:55.869Z,50.80
2022-10-06T09:04:31.488Z,51.40
2022-10-06T09:07:11.347Z,51.40
2022-10-06T09:09:54.679Z,51.10
2022-10-06T09:12:24.894Z,49.90
2022-10-06T09:15:17.409Z,50.80
2022-10-06T09:17:55.439Z,49.90
2022-10-06T09:20:52.362Z,49.90
2022-10-06T09:23:42.068Z,49.90
2022-10-06T09:26:24.837Z,48.60
2022-10-06T09:28:56.318Z,49.70
2022-10-06T09:31:27.933Z,49.70
2022-10-06T09:34:06.504Z,49.40
2022-10-06T09:36:46.473Z,49.60
2022-10-06T09:39:27.424Z,49.40
2022-10-06T09:41:57.333Z,49.40
2022-10-06T09:44:32.258Z,48.60
2022-10-06T09:47:02.163Z,48.50
2022-10-06T09:49:32.656Z,49.90
2022-10-06T09:52:14.235Z,49.70
2022-10-06T09:54:44.858Z,49.80
2022-10-06T09:57:27.207Z,49.80
2022-10-06T10:00:01.088Z,49.90
2022-10-06T10:02:42.091Z,50.20
2022-10-06T10:05:22.514Z,50.30
2022-10-06T10:08:15.173Z,50.00
2022-10-06T10:10:45.117Z,50.20
2022-10-06T10:13:27.369Z,50.10
2022-10-06T10:15:58.717Z,50.60
2022-10-06T10:18:30.021Z,50.40
2022-10-06T10:21:07.437Z,50.00
2022-10-06T10:23:45.035Z,49.90
2022-10-06T10:26:42.581Z,50.80
2022-10-06T10:29:23.881Z,50.10
2022-10-06T10:32:18.299Z,50.80
2022-10-06T10:35:17.855Z,50.30
2022-10-06T10:38:22.885Z,51.20
2022-10-06T10:41:15.697Z,50.80
2022-10-06T10:43:55.383Z,50.90
2022-10-06T10:46:36.084Z,50.30
2022-10-06T10:49:16.999Z,50.90
2022-10-06T10:51:55.240Z,51.00
2022-10-06T10:54:40.406Z,50.80
2022-10-06T10:57:18.002Z,51.40
2022-10-06T10:59:51.120Z,49.60
2022-10-06T11:02:21.972Z,50.80
2022-10-06T11:04:54.731Z,51.10
2022-10-06T11:07:27.679Z,50.70
2022-10-06T11:10:03.535Z,51.20
2022-10-06T11:12:39.743Z,50.90
2022-10-06T11:15:21.705Z,50.10
2022-10-06T11:17:51.961Z,50.70
2022-10-06T11:20:49.746Z,50.60
2022-10-06T11:23:41.798Z,51.20
2022-10-06T11:26:21.663Z,51.40
2022-10-06T11:29:10.014Z,51.00
2022-10-06T11:31:55.799Z,49.60
2022-10-06T11:34:26.056Z,51.80
2022-10-06T11:36:57.788Z,51.50
2022-10-06T11:39:53.172Z,50.80
2022-10-06T11:42:39.688Z,51.50
2022-10-06T11:45:20.911Z,51.60
2022-10-06T11:48:08.890Z,52.20
2022-10-06T11:50:40.359Z,52.70
2022-10-06T11:53:33.477Z,52.30
2022-10-06T11:56:22.618Z,52.40
2022-10-06T11:58:58.413Z,52.40
2022-10-06T12:01:45.350Z,52.00
2022-10-06T12:04:19.561Z,51.30
2022-10-06T12:06:55.765Z,52.50
2022-10-06T12:09:29.622Z,52.40
2022-10-06T12:12:22.455Z,52.50
2022-10-06T12:18:10.679Z,52.40
2022-10-06T12:21:07.601Z,52.00
2022-10-06T12:23:47.041Z,52.60
2022-10-06T12:26:38.528Z,52.80
2022-10-06T12:29:40.580Z,52.00
2022-10-06T12:32:51.004Z,51.30
2022-10-06T12:35:38.852Z,52.50
2022-10-06T12:38:37.889Z,53.00
2022-10-06T12:41:10.342Z,52.60
2022-10-06T12:43:55.781Z,52.50
2022-10-06T12:46:40.427Z,53.10
2022-10-06T12:49:33.203Z,52.30
2022-10-06T12:52:35.141Z,52.80
2022-10-06T12:55:28.789Z,52.90
2022-10-06T12:57:58.667Z,52.90
2022-10-06T13:00:42.388Z,53.30
2022-10-06T13:03:27.804Z,53.40
2022-10-06T13:06:05.260Z,52.80
2022-10-06T13:08:36.444Z,52.90
2022-10-06T13:11:28.325Z,51.80
2022-10-06T13:14:10.905Z,53.40
2022-10-06T13:16:50.550Z,53.10
2022-10-06T13:19:28.715Z,54.10
2022-10-06T13:21:58.938Z,52.90
2022-10-06T13:24:28.997Z,51.90
2022-10-06T13:26:58.913Z,53.20
2022-10-06T13:29:28.864Z,53.10
2022-10-06T13:31:58.749Z,53.60
2022-10-06T13:34:33.994Z,53.70
2022-10-06T13:37:04.715Z,53.00
2022-10-06T13:39:34.669Z,54.00
2022-10-06T13:42:11.689Z,53.20
2022-10-06T13:44:56.345Z,52.80
2022-10-06T13:47:26.971Z,54.10
2022-10-06T13:50:04.316Z,54.70
2022-10-06T13:52:35.114Z,53.80
2022-10-06T13:55:05.560Z,53.50
2022-10-06T13:57:45.541Z,54.60
2022-10-06T14:00:25.938Z,52.60
2022-10-06T14:03:22.868Z,54.10
2022-10-06T14:05:54.019Z,55.10
2022-10-06T14:08:26.258Z,54.30
2022-10-06T14:11:00.092Z,54.40
2022-10-06T14:13:54.877Z,54.30
2022-10-06T14:16:26.572Z,53.60
2022-10-06T14:19:03.231Z,52.30
2022-10-06T14:21:39.385Z,53.40
2022-10-06T14:24:20.053Z,54.10
2022-10-06T14:26:57.211Z,54.00
2022-10-06T14:29:27.614Z,52.80
2022-10-06T14:31:57.506Z,54.50
2022-10-06T14:34:29.075Z,53.60
2022-10-06T14:36:58.935Z,53.80
2022-10-06T14:39:29.677Z,53.20
2022-10-06T14:41:59.896Z,54.80
2022-10-06T14:44:29.833Z,54.70
2022-10-06T14:46:59.718Z,54.80
2022-10-06T14:49:29.734Z,54.20
2022-10-06T14:51:59.648Z,54.90
2022-10-06T14:54:31.700Z,54.10
2022-10-06T14:57:01.605Z,53.80
2022-10-06T14:59:32.797Z,54.90
2022-10-06T15:02:04.718Z,54.60
2022-10-06T15:04:34.647Z,54.50
2022-10-06T15:07:22.393Z,53.30
2022-10-06T15:09:52.487Z,55.30
2022-10-06T15:12:22.376Z,53.90
2022-10-06T15:14:52.344Z,54.40
2022-10-06T15:17:24.220Z,55.00
2022-10-06T15:19:54.207Z,53.70
2022-10-06T15:22:24.095Z,55.60
2022-10-06T15:24:54.003Z,54.40
2022-10-06T15:30:17.388Z,53.60
2022-10-06T15:32:48.295Z,52.70
2022-10-06T15:35:19.095Z,54.80
2022-10-06T15:37:49.789Z,54.90
2022-10-06T15:40:20.031Z,53.50
2022-10-06T15:42:51.211Z,54.70
2022-10-06T15:45:22.358Z,54.30
2022-10-06T15:47:53.950Z,55.20
2022-10-06T15:50:23.897Z,54.50
2022-10-06T15:52:53.917Z,55.90
2022-10-06T15:55:23.917Z,55.40
2022-10-06T15:57:53.996Z,54.80
2022-10-06T16:00:23.874Z,55.10
2022-10-06T16:02:55.705Z,54.50
2022-10-06T16:05:48.062Z,53.50
2022-10-06T16:08:18.015Z,55.20
2022-10-06T16:10:52.816Z,53.80
2022-10-06T16:13:23.231Z,54.30
2022-10-06T16:15:57.105Z,55.80
2022-10-06T16:18:29.660Z,55.30
2022-10-06T16:20:59.619Z,55.50
2022-10-06T16:23:29.509Z,54.60
2022-10-06T16:26:03.493Z,55.10
2022-10-06T16:28:34.000Z,55.40
2022-10-06T16:31:04.393Z,54.20
2022-10-06T16:33:34.401Z,54.30
2022-10-06T16:36:04.419Z,55.40
2022-10-06T16:38:34.292Z,56.00
2022-10-06T16:41:04.248Z,56.30
2022-10-06T16:43:37.976Z,56.30
2022-10-06T16:46:09.624Z,55.00
2022-10-06T16:48:41.475Z,55.60
2022-10-06T16:51:12.346Z,54.90
2022-10-06T16:53:46.687Z,55.90
2022-10-06T16:56:28.349Z,56.30
2022-10-06T16:58:59.563Z,55.60
2022-10-06T17:01:30.785Z,55.20
2022-10-06T17:04:11.326Z,53.80
2022-10-06T17:06:46.522Z,56.30
2022-10-06T17:09:18.516Z,55.50
2022-10-06T17:11:50.329Z,56.10
2022-10-06T17:14:20.850Z,54.90
2022-10-06T17:16:52.336Z,54.10
2022-10-06T17:19:23.549Z,55.60
2022-10-06T17:21:58.529Z,56.60
2022-10-06T17:24:29.904Z,55.40
2022-10-06T17:27:00.457Z,55.40
2022-10-06T17:29:30.744Z,56.50
2022-10-06T17:32:01.127Z,56.00
2022-10-06T17:34:32.769Z,54.90
2022-10-06T17:37:03.854Z,54.60
2022-10-06T17:39:34.144Z,56.20
2022-10-06T17:42:04.108Z,55.50
2022-10-06T17:44:34.562Z,55.80
2022-10-06T17:47:04.725Z,55.50
2022-10-06T17:49:36.056Z,56.00
2022-10-06T17:52:07.006Z,56.30
2022-10-06T17:54:36.914Z,56.60
2022-10-06T17:57:07.177Z,55.10
2022-10-06T17:59:37.328Z,55.50
2022-10-06T18:03:10.162Z,56.40
2022-10-06T18:06:18.485Z,55.90
2022-10-06T18:09:02.519Z,56.40
2022-10-06T18:11:44.868Z,57.00
2022-10-06T18:14:18.890Z,56.10
2022-10-06T18:17:47.349Z,56.70
2022-10-06T18:20:17.285Z,55.90
2022-10-06T18:22:47.187Z,55.70
2022-10-06T18:25:18.030Z,56.00
2022-10-06T18:27:50.994Z,56.70
2022-10-06T18:30:22.243Z,56.30
2022-10-06T18:38:53.668Z,56.00
2022-10-06T18:42:06.898Z,56.60
2022-10-06T18:44:55.194Z,55.90
2022-10-06T18:47:43.695Z,56.40
2022-10-06T18:50:14.018Z,56.80
2022-10-06T18:52:44.728Z,57.10
2022-10-06T18:55:14.910Z,55.90
2022-10-06T18:57:45.982Z,56.10
2022-10-06T19:00:16.106Z,56.80
2022-10-06T19:02:48.483Z,56.50
2022-10-06T19:05:18.842Z,57.10
2022-10-06T19:07:49.412Z,56.60
2022-10-06T19:10:19.350Z,57.40
2022-10-06T19:12:49.628Z,57.50
2022-10-06T19:15:20.998Z,56.10
2022-10-06T19:17:52.167Z,56.80
2022-10-06T19:20:24.554Z,56.40
2022-10-06T19:22:54.431Z,57.20
2022-10-06T19:25:26.158Z,56.20
2022-10-06T19:27:56.166Z,57.40
2022-10-06T19:30:26.253Z,56.70
2022-10-06T19:33:00.312Z,55.90
2022-10-06T19:35:30.277Z,56.40
2022-10-06T19:38:00.937Z,57.20
2022-10-06T19:40:30.879Z,55.10
2022-10-06T19:43:00.756Z,57.40
2022-10-06T19:45:30.635Z,57.60
2022-10-06T19:48:00.564Z,57.20
2022-10-06T19:50:31.377Z,57.20
2022-10-06T19:53:01.545Z,55.90
2022-10-06T19:55:31.590Z,56.10
2022-10-06T19:58:01.660Z,57.50
2022-10-06T20:00:32.423Z,56.80
2022-10-06T20:03:32.614Z,56.60
2022-10-06T20:06:05.470Z,56.90
2022-10-06T20:08:35.595Z,56.20
2022-10-06T20:11:10.366Z,57.20
2022-10-06T20:14:21.060Z,56.70
2022-10-06T20:17:00.249Z,55.50
2022-10-06T20:19:30.225Z,56.60
2022-10-06T20:22:00.135Z,55.90
2022-10-06T20:24:32.299Z,57.70
2022-10-06T20:27:02.245Z,55.80
2022-10-06T20:29:32.697Z,57.50
2022-10-06T20:32:02.701Z,57.50
2022-10-06T20:34:33.168Z,57.00
2022-10-06T20:37:04.148Z,57.00
2022-10-06T20:39:52.787Z,56.20
2022-10-06T20:42:34.851Z,58.00
2022-10-06T20:45:27.366Z,57.20
2022-10-06T20:47:59.352Z,56.20
2022-10-06T20:50:32.152Z,57.80
2022-10-06T20:53:02.093Z,57.70
2022-10-06T20:55:31.974Z,55.90
2022-10-06T20:58:01.957Z,56.90
2022-10-06T21:00:31.967Z,57.10
2022-10-06T21:03:02.013Z,56.40
2022-10-06T21:05:34.293Z,55.90
2022-10-06T21:08:04.383Z,57.50
2022-10-06T21:10:34.609Z,57.40
2022-10-06T21:13:04.846Z,57.10
2022-10-06T21:15:34.830Z,57.20
2022-10-06T21:18:06.801Z,57.20
2022-10-06T21:20:36.757Z,57.10
2022-10-06T21:23:06.753Z,56.60
2022-10-06T21:25:39.870Z,56.80
2022-10-06T21:28:09.467Z,56.20
2022-10-06T21:30:39.486Z,55.60
2022-10-06T21:33:09.437Z,56.70
2022-10-06T21:35:39.316Z,56.70
2022-10-06T21:38:12.435Z,56.60
2022-10-06T21:40:44.774Z,56.60
2022-10-06T21:43:14.717Z,56.20
2022-10-06T21:46:00.828Z,57.50
2022-10-06T21:48:39.012Z,56.70
2022-10-06T21:51:10.238Z,56.70
2022-10-06T21:53:43.767Z,56.50
2022-10-06T21:56:14.400Z,57.80
2022-10-06T21:58:45.115Z,57.80
2022-10-06T22:01:15.609Z,57.60
2022-10-06T22:03:45.551Z,57.60
2022-10-06T22:06:19.087Z,57.60
2022-10-06T22:08:49.720Z,56.90
2022-10-06T22:11:24.249Z,57.30
2022-10-06T22:13:57.029Z,57.00
2022-10-06T22:16:28.731Z,57.00
2022-10-06T22:18:58.817Z,58.10
2022-10-06T22:21:36.414Z,57.90
2022-10-06T22:24:11.108Z,57.50
2022-10-06T22:26:41.861Z,58.00
2022-10-06T22:29:13.540Z,57.90
2022-10-06T22:31:44.721Z,57.40
2022-10-06T22:34:17.020Z,58.20
2022-10-06T22:36:46.968Z,58.10
2022-10-06T22:39:17.159Z,58.10
2022-10-06T22:41:47.098Z,57.50
2022-10-06T22:44:17.092Z,57.70
2022-10-06T22:46:47.183Z,57.50
2022-10-06T22:49:17.181Z,58.10
2022-10-06T22:51:47.127Z,57.10
2022-10-06T22:54:19.407Z,57.70
2022-10-06T22:56:49.414Z,58.20
2022-10-06T22:59:19.344Z,58.10
2022-10-06T23:01:49.261Z,56.10
2022-10-06T23:04:19.197Z,57.20
2022-10-06T23:06:49.101Z,58.20
2022-10-06T23:09:19.060Z,58.50
2022-10-06T23:11:48.950Z,57.60
2022-10-06T23:14:18.874Z,57.70
2022-10-06T23:16:48.905Z,58.40
2022-10-06T23:19:18.927Z,58.70
2022-10-06T23:21:48.887Z,58.30
2022-10-06T23:24:18.927Z,58.20
2022-10-06T23:26:48.840Z,57.80
2022-10-06T23:29:18.859Z,57.70
2022-10-06T23:31:48.840Z,58.10
2022-10-06T23:34:18.921Z,58.20
2022-10-06T23:36:48.890Z,56.90
2022-10-06T23:39:18.855Z,56.70
2022-10-06T23:41:48.793Z,56.60
2022-10-06T23:44:18.760Z,58.80
2022-10-06T23:46:48.699Z,57.90
2022-10-06T23:49:18.610Z,57.80
2022-10-06T23:51:48.780Z,57.10
2022-10-06T23:54:18.682Z,57.60
2022-10-06T23:56:50.604Z,57.30
2022-10-06T23:59:23.518Z,56.80
